createdAt,value
2019-06-01T00:00:11.569Z,7.28
2019-06-01T00:02:38.784Z,6.28
2019-06-01T00:05:12.685Z,5.53
2019-06-01T00:07:40.812Z,6.17
2019-06-01T00:10:10.964Z,6.17
2019-06-01T00:12:41.393Z,4.42
2019-06-01T00:15:11.289Z,4.47
2019-06-01T00:17:41.766Z,3.92
2019-06-01T00:20:11.679Z,5.83
2019-06-01T00:22:41.263Z,4.45
2019-06-01T00:25:10.935Z,4.22
2019-06-01T00:27:40.574Z,4.30
2019-06-01T00:30:25.950Z,4.90
2019-06-01T00:32:41.468Z,3.90
2019-06-01T00:35:11.128Z,4.80
2019-06-01T00:37:54.226Z,4.00
2019-06-01T00:40:23.728Z,6.30
2019-06-01T00:42:53.261Z,4.62
2019-06-01T00:45:22.660Z,4.20
2019-06-01T00:47:53.049Z,4.72
2019-06-01T00:50:22.535Z,4.53
2019-06-01T00:52:53.190Z,4.97
2019-06-01T00:55:22.897Z,4.15
2019-06-01T00:57:52.299Z,5.35
2019-06-01T01:00:21.807Z,5.40
2019-06-01T01:02:52.195Z,4.22
2019-06-01T01:05:22.221Z,4.17
2019-06-01T01:07:53.355Z,4.65
2019-06-01T01:10:22.838Z,5.60
2019-06-01T01:13:05.856Z,3.47
2019-06-01T01:15:35.704Z,4.17
2019-06-01T01:18:07.657Z,5.12
2019-06-01T01:20:52.045Z,3.15
2019-06-01T01:23:21.542Z,3.12
2019-06-01T01:25:51.077Z,4.72
2019-06-01T01:28:23.396Z,7.40
2019-06-01T01:31:02.731Z,4.97
2019-06-01T01:33:22.757Z,4.55
2019-06-01T01:35:52.558Z,2.90
2019-06-01T01:38:23.436Z,14.03
2019-06-01T01:40:54.107Z,3.05
2019-06-01T01:43:23.679Z,2.98
2019-06-01T01:45:53.062Z,3.20
2019-06-01T01:48:22.475Z,2.92
2019-06-01T01:50:52.411Z,4.53
2019-06-01T01:53:22.005Z,4.92
2019-06-01T01:55:51.409Z,3.58
2019-06-01T01:58:20.802Z,2.85
2019-06-01T02:00:52.951Z,3.30
2019-06-01T02:03:22.541Z,4.87
2019-06-01T02:05:52.931Z,3.62
2019-06-01T02:08:22.579Z,2.60
2019-06-01T02:10:53.231Z,2.87
2019-06-01T02:13:22.929Z,5.67
2019-06-01T02:15:53.997Z,2.62
2019-06-01T02:18:23.627Z,2.17
2019-06-01T02:20:54.367Z,3.15
2019-06-01T02:23:23.867Z,2.60
2019-06-01T02:25:53.260Z,3.40
2019-06-01T02:28:22.691Z,3.75
2019-06-01T02:30:53.854Z,2.85
2019-06-01T02:33:23.237Z,4.28
2019-06-01T02:35:54.374Z,3.33
2019-06-01T02:38:43.745Z,2.95
2019-06-01T02:41:14.857Z,2.30
2019-06-01T02:43:48.488Z,3.08
2019-06-01T02:46:18.515Z,5.05
2019-06-01T02:48:49.826Z,2.83
2019-06-01T02:51:19.400Z,3.50
2019-06-01T02:53:48.860Z,3.05
2019-06-01T02:56:18.267Z,3.05
2019-06-01T02:58:47.649Z,2.27
2019-06-01T03:01:20.122Z,2.17
2019-06-01T03:03:50.648Z,2.58
2019-06-01T03:06:20.484Z,3.70
2019-06-01T03:08:52.754Z,2.70
2019-06-01T03:11:25.191Z,2.77
2019-06-01T03:13:58.231Z,3.77
2019-06-01T03:16:30.014Z,3.22
2019-06-01T03:19:01.888Z,2.40
2019-06-01T03:21:32.782Z,2.60
2019-06-01T03:24:05.953Z,2.35
2019-06-01T03:26:38.559Z,3.72
2019-06-01T03:29:11.123Z,2.22
2019-06-01T03:31:41.480Z,5.53
2019-06-01T03:34:11.425Z,5.87
2019-06-01T03:36:41.367Z,3.25
2019-06-01T03:39:10.838Z,2.80
2019-06-01T03:41:40.475Z,2.77
2019-06-01T03:44:09.865Z,2.00
2019-06-01T03:46:39.264Z,4.65
2019-06-01T03:49:09.767Z,5.67
2019-06-01T03:51:39.399Z,3.30
2019-06-01T03:54:10.161Z,4.50
2019-06-01T03:56:39.788Z,2.77
2019-06-01T03:59:09.484Z,4.35
2019-06-01T04:01:53.472Z,2.85
2019-06-01T04:04:22.868Z,2.47
2019-06-01T04:06:52.251Z,2.67
2019-06-01T04:09:21.662Z,3.72
2019-06-01T04:11:51.083Z,3.10
2019-06-01T04:14:20.511Z,4.35
2019-06-01T04:16:49.887Z,2.58
2019-06-01T04:19:19.279Z,6.10
2019-06-01T04:21:48.734Z,3.42
2019-06-01T04:24:18.133Z,3.75
2019-06-01T04:26:47.575Z,2.98
2019-06-01T04:29:16.967Z,3.58
2019-06-01T04:31:46.349Z,3.62
2019-06-01T04:34:15.731Z,4.78
2019-06-01T04:36:45.119Z,2.47
2019-06-01T04:39:14.502Z,2.90
2019-06-01T04:41:43.883Z,3.12
2019-06-01T04:44:14.320Z,3.72
2019-06-01T04:46:43.847Z,2.27
2019-06-01T04:49:13.422Z,2.65
2019-06-01T04:51:44.085Z,2.62
2019-06-01T04:54:14.402Z,2.50
2019-06-01T04:57:04.749Z,2.92
2019-06-01T04:59:37.690Z,2.70
2019-06-01T05:02:05.681Z,3.17
2019-06-01T05:04:36.730Z,4.60
2019-06-01T05:07:07.223Z,2.60
2019-06-01T05:09:36.794Z,2.92
2019-06-01T05:12:07.398Z,4.87
2019-06-01T05:14:36.994Z,2.52
2019-06-01T05:17:07.801Z,2.62
2019-06-01T05:19:37.284Z,5.85
2019-06-01T05:22:06.668Z,2.67
2019-06-01T05:24:36.137Z,2.85
2019-06-01T05:27:06.823Z,2.60
2019-06-01T05:29:36.346Z,6.20
2019-06-01T05:32:05.817Z,4.90
2019-06-01T05:34:35.179Z,2.90
2019-06-01T05:37:04.574Z,2.83
2019-06-01T05:39:34.051Z,2.58
2019-06-01T05:42:03.444Z,2.83
2019-06-01T05:44:32.819Z,4.72
2019-06-01T05:47:02.223Z,2.62
2019-06-01T05:49:31.669Z,3.80
2019-06-01T05:52:01.331Z,2.90
2019-06-01T05:54:30.765Z,2.55
2019-06-01T05:57:00.180Z,3.55
2019-06-01T05:59:29.565Z,3.45
2019-06-01T06:01:58.980Z,2.67
2019-06-01T06:04:28.444Z,3.83
2019-06-01T06:06:58.027Z,2.12
2019-06-01T06:09:27.560Z,5.30
2019-06-01T06:11:57.136Z,6.75
2019-06-01T06:14:27.491Z,3.72
2019-06-01T06:16:56.909Z,3.50
2019-06-01T06:19:27.887Z,4.87
2019-06-01T06:22:12.007Z,2.65
2019-06-01T06:24:41.427Z,2.30
2019-06-01T06:27:10.827Z,2.25
2019-06-01T06:29:40.290Z,2.77
2019-06-01T06:32:09.975Z,4.50
2019-06-01T06:34:39.541Z,5.03
2019-06-01T06:37:09.096Z,4.90
2019-06-01T06:39:38.543Z,3.00
2019-06-01T06:42:08.026Z,2.92
2019-06-01T06:44:37.493Z,6.65
2019-06-01T06:47:08.075Z,3.15
2019-06-01T06:49:37.463Z,2.55
2019-06-01T06:52:21.698Z,5.90
2019-06-01T06:54:51.151Z,2.35
2019-06-01T06:57:20.619Z,4.08
2019-06-01T06:59:52.741Z,3.83
2019-06-01T07:02:22.894Z,2.67
2019-06-01T07:04:53.177Z,2.12
2019-06-01T07:07:23.663Z,3.50
2019-06-01T07:09:53.313Z,3.30
2019-06-01T07:12:23.300Z,3.08
2019-06-01T07:14:53.656Z,1.72
2019-06-01T07:17:23.555Z,2.77
2019-06-01T07:19:53.113Z,5.25
2019-06-01T07:22:23.677Z,3.35
2019-06-01T07:24:53.428Z,2.45
2019-06-01T07:27:24.041Z,4.40
2019-06-01T07:29:54.661Z,3.58
2019-06-01T07:32:24.653Z,1.72
2019-06-01T07:34:54.224Z,3.05
2019-06-01T07:37:24.455Z,1.98
2019-06-01T07:39:54.163Z,4.62
2019-06-01T07:42:26.303Z,2.90
2019-06-01T07:44:56.152Z,3.33
2019-06-01T07:47:27.207Z,4.60
2019-06-01T07:49:57.071Z,4.55
2019-06-01T07:52:26.600Z,2.85
2019-06-01T07:54:56.188Z,3.45
2019-06-01T07:57:25.584Z,2.80
2019-06-01T07:59:54.996Z,1.65
2019-06-01T08:02:26.248Z,3.87
2019-06-01T08:04:55.572Z,4.37
2019-06-01T08:07:26.071Z,2.08
2019-06-01T08:09:55.945Z,3.77
2019-06-01T08:12:25.546Z,2.00
2019-06-01T08:14:55.064Z,1.70
2019-06-01T08:17:38.005Z,2.17
2019-06-01T08:20:09.331Z,2.45
2019-06-01T08:22:38.868Z,1.80
2019-06-01T08:25:08.739Z,1.90
2019-06-01T08:27:38.163Z,3.67
2019-06-01T08:30:08.100Z,3.87
2019-06-01T08:32:37.483Z,3.65
2019-06-01T08:35:09.463Z,2.00
2019-06-01T08:37:38.472Z,2.00
2019-06-01T08:40:08.303Z,3.85
2019-06-01T08:42:37.992Z,2.87
2019-06-01T08:45:07.833Z,2.02
2019-06-01T08:47:37.232Z,2.27
2019-06-01T08:50:08.309Z,2.47
2019-06-01T08:52:37.706Z,3.35
2019-06-01T08:55:07.544Z,2.12
2019-06-01T08:57:37.009Z,3.50
2019-06-01T09:00:08.924Z,2.62
2019-06-01T09:02:52.468Z,1.95
2019-06-01T09:05:26.778Z,2.30
2019-06-01T09:07:56.161Z,1.95
2019-06-01T09:10:27.143Z,1.90
2019-06-01T09:12:56.899Z,1.77
2019-06-01T09:15:27.563Z,2.75
2019-06-01T09:17:57.143Z,2.12
2019-06-01T09:20:27.404Z,2.72
2019-06-01T09:22:57.000Z,1.75
2019-06-01T09:25:27.514Z,1.72
2019-06-01T09:28:16.497Z,1.40
2019-06-01T09:30:45.998Z,2.42
2019-06-01T09:33:15.449Z,2.55
2019-06-01T09:35:55.374Z,2.65
2019-06-01T09:38:15.975Z,3.80
2019-06-01T09:40:45.402Z,3.02
2019-06-01T09:43:14.938Z,4.08
2019-06-01T09:45:45.652Z,1.40
2019-06-01T09:48:15.298Z,1.45
2019-06-01T09:50:44.743Z,1.45
2019-06-01T09:53:14.179Z,1.30
2019-06-01T09:55:43.594Z,2.27
2019-06-01T09:58:13.858Z,1.47
2019-06-01T10:00:44.092Z,1.52
2019-06-01T10:03:16.197Z,1.52
2019-06-01T10:06:00.898Z,2.33
2019-06-01T10:08:16.801Z,1.70
2019-06-01T10:10:46.402Z,2.47
2019-06-01T10:13:18.547Z,1.70
2019-06-01T10:15:47.943Z,1.40
2019-06-01T10:18:17.468Z,2.52
2019-06-01T10:20:48.011Z,1.77
2019-06-01T10:23:17.413Z,2.08
2019-06-01T10:25:46.795Z,1.82
2019-06-01T10:28:16.377Z,1.50
2019-06-01T10:30:45.819Z,3.42
2019-06-01T10:33:15.766Z,3.47
2019-06-01T10:35:45.463Z,3.42
2019-06-01T10:38:15.022Z,4.60
2019-06-01T10:40:44.422Z,5.53
2019-06-01T10:43:14.068Z,4.87
2019-06-01T10:45:43.480Z,3.80
2019-06-01T10:48:14.120Z,5.10
2019-06-01T10:50:43.681Z,5.35
2019-06-01T10:53:13.187Z,5.15
2019-06-01T10:55:42.595Z,4.75
2019-06-01T10:58:12.115Z,5.17
2019-06-01T11:00:49.401Z,8.38
2019-06-01T11:03:13.114Z,5.92
2019-06-01T11:05:43.007Z,6.67
2019-06-01T11:08:12.717Z,6.15
2019-06-01T11:10:43.253Z,7.33
2019-06-01T11:13:12.792Z,7.35
2019-06-01T11:15:43.302Z,3.98
2019-06-01T11:18:12.748Z,11.78
2019-06-01T11:20:42.212Z,4.28
2019-06-01T11:23:11.784Z,4.42
2019-06-01T11:25:41.680Z,5.20
2019-06-01T11:28:11.176Z,6.50
2019-06-01T11:30:41.767Z,4.62
2019-06-01T11:33:12.573Z,5.67
2019-06-01T11:35:43.427Z,3.95
2019-06-01T11:38:13.266Z,4.47
2019-06-01T11:40:42.857Z,7.60
2019-06-01T11:43:12.334Z,4.87
2019-06-01T11:45:42.920Z,4.45
2019-06-01T11:48:12.459Z,4.08
2019-06-01T11:50:43.005Z,4.10
2019-06-01T11:53:12.688Z,10.65
2019-06-01T11:55:43.281Z,3.25
2019-06-01T11:58:14.766Z,5.35
2019-06-01T12:00:44.168Z,5.95
2019-06-01T12:03:13.641Z,7.95
2019-06-01T12:05:57.045Z,8.00
2019-06-01T12:08:26.447Z,2.80
2019-06-01T12:10:55.847Z,4.35
2019-06-01T12:13:25.318Z,5.12
2019-06-01T12:15:54.723Z,6.95
2019-06-01T12:18:38.469Z,5.05
2019-06-01T12:21:08.864Z,3.22
2019-06-01T12:23:38.964Z,3.05
2019-06-01T12:26:08.535Z,5.85
2019-06-01T12:28:37.929Z,2.98
2019-06-01T12:31:07.319Z,4.62
2019-06-01T12:33:37.953Z,3.17
2019-06-01T12:36:08.416Z,2.62
2019-06-01T12:38:53.567Z,5.00
2019-06-01T12:41:23.608Z,3.20
2019-06-01T12:44:12.099Z,4.17
2019-06-01T12:46:42.238Z,3.35
2019-06-01T12:49:11.792Z,2.55
2019-06-01T12:51:42.625Z,5.22
2019-06-01T12:54:12.167Z,4.72
2019-06-01T12:56:42.818Z,4.25
2019-06-01T12:59:12.325Z,3.17
2019-06-01T13:01:42.966Z,6.25
2019-06-01T13:04:13.669Z,4.58
2019-06-01T13:06:43.078Z,5.92
2019-06-01T13:09:12.599Z,6.47
2019-06-01T13:11:43.215Z,3.67
2019-06-01T13:14:12.776Z,4.28
2019-06-01T13:16:48.508Z,2.90
2019-06-01T13:19:14.323Z,7.30
2019-06-01T13:21:43.887Z,7.50
2019-06-01T13:24:13.352Z,2.92
2019-06-01T13:26:43.726Z,6.37
2019-06-01T13:29:13.298Z,4.85
2019-06-01T13:31:44.071Z,3.65
2019-06-01T13:34:13.861Z,5.33
2019-06-01T13:36:44.484Z,4.75
2019-06-01T13:39:14.042Z,4.58
2019-06-01T13:41:44.945Z,7.00
2019-06-01T13:44:14.509Z,2.22
2019-06-01T13:46:45.184Z,3.90
2019-06-01T13:49:14.746Z,3.45
2019-06-01T13:51:44.203Z,3.02
2019-06-01T13:54:13.714Z,4.55
2019-06-01T13:56:44.644Z,3.30
2019-06-01T13:59:14.272Z,2.55
2019-06-01T14:01:45.074Z,7.28
2019-06-01T14:04:14.667Z,1.98
2019-06-01T14:06:45.114Z,5.50
2019-06-01T14:09:22.116Z,2.90
2019-06-01T14:11:51.902Z,3.90
2019-06-01T14:14:21.564Z,4.08
2019-06-01T14:16:51.710Z,6.62
2019-06-01T14:19:22.486Z,2.37
2019-06-01T14:21:52.430Z,1.80
2019-06-01T14:24:22.744Z,8.80
2019-06-01T14:26:52.474Z,2.00
2019-06-01T14:29:22.172Z,2.83
2019-06-01T14:31:54.001Z,5.12
2019-06-01T14:34:29.788Z,2.62
2019-06-01T14:36:59.476Z,2.77
2019-06-01T14:39:28.882Z,2.27
2019-06-01T14:41:58.502Z,2.58
2019-06-01T14:44:27.983Z,2.12
2019-06-01T14:47:03.794Z,2.80
2019-06-01T14:49:28.636Z,2.55
2019-06-01T14:51:58.085Z,4.50
2019-06-01T14:54:27.619Z,3.42
2019-06-01T14:56:59.797Z,3.77
2019-06-01T14:59:50.307Z,2.92
2019-06-01T15:02:19.883Z,3.02
2019-06-01T15:04:50.064Z,3.92
2019-06-01T15:07:19.654Z,3.22
2019-06-01T15:09:52.358Z,2.83
2019-06-01T15:12:21.880Z,4.17
2019-06-01T15:14:52.983Z,6.17
2019-06-01T15:17:22.551Z,4.00
2019-06-01T15:19:52.555Z,2.45
2019-06-01T15:22:22.017Z,2.30
2019-06-01T15:25:08.668Z,4.60
2019-06-01T15:27:38.714Z,2.42
2019-06-01T15:30:10.721Z,4.72
2019-06-01T15:32:40.301Z,2.42
2019-06-01T15:35:10.792Z,3.17
2019-06-01T15:37:40.729Z,1.75
2019-06-01T15:40:11.406Z,9.30
2019-06-01T15:42:41.040Z,4.45
2019-06-01T15:45:11.362Z,5.22
2019-06-01T15:47:41.171Z,2.85
2019-06-01T15:50:12.686Z,3.83
2019-06-01T15:52:42.657Z,3.02
2019-06-01T15:55:14.820Z,5.12
2019-06-01T15:57:44.360Z,4.40
2019-06-01T16:00:14.205Z,3.10
2019-06-01T16:02:43.622Z,3.37
2019-06-01T16:05:13.721Z,3.22
2019-06-01T16:07:43.176Z,7.72
2019-06-01T16:10:13.804Z,10.93
2019-06-01T16:12:43.310Z,5.65
2019-06-01T16:15:12.955Z,4.12
2019-06-01T16:17:42.536Z,7.00
2019-06-01T16:20:13.725Z,3.08
2019-06-01T16:22:44.033Z,4.83
2019-06-01T16:25:13.839Z,9.48
2019-06-01T16:27:43.284Z,12.93
2019-06-01T16:30:13.092Z,6.30
2019-06-01T16:32:42.645Z,6.50
2019-06-01T16:35:12.215Z,7.42
2019-06-01T16:37:41.677Z,9.98
2019-06-01T16:40:12.308Z,7.08
2019-06-01T16:42:41.709Z,8.28
2019-06-01T16:45:11.647Z,4.25
2019-06-01T16:47:41.137Z,3.25
2019-06-01T16:50:11.281Z,4.00
2019-06-01T16:52:40.672Z,9.10
2019-06-01T16:55:13.329Z,8.38
2019-06-01T16:57:43.144Z,5.28
2019-06-01T17:00:14.845Z,6.22
2019-06-01T17:02:44.315Z,2.85
2019-06-01T17:05:14.429Z,3.45
2019-06-01T17:07:43.876Z,4.28
2019-06-01T17:10:25.530Z,5.35
2019-06-01T17:12:46.975Z,3.83
2019-06-01T17:15:18.406Z,2.83
2019-06-01T17:17:51.372Z,3.25
2019-06-01T17:20:40.295Z,3.83
2019-06-01T17:23:24.297Z,2.02
2019-06-01T17:25:41.238Z,6.40
2019-06-01T17:28:10.908Z,3.08
2019-06-01T17:30:40.435Z,8.13
2019-06-01T17:33:10.743Z,2.80
2019-06-01T17:35:40.217Z,9.40
2019-06-01T17:38:12.021Z,2.37
2019-06-01T17:40:43.147Z,2.67
2019-06-01T17:43:13.193Z,4.80
2019-06-01T17:45:43.072Z,5.35
2019-06-01T17:48:25.174Z,3.58
2019-06-01T17:50:43.619Z,4.47
2019-06-01T17:53:13.191Z,5.12
2019-06-01T17:55:43.779Z,7.65
2019-06-01T17:58:13.297Z,6.65
2019-06-01T18:00:42.986Z,9.78
2019-06-01T18:03:12.702Z,8.93
2019-06-01T18:05:42.494Z,7.45
2019-06-01T18:08:12.782Z,6.58
2019-06-01T18:10:53.290Z,6.35
2019-06-01T18:13:13.902Z,9.00
2019-06-01T18:15:43.296Z,4.05
2019-06-01T18:18:12.995Z,4.33
2019-06-01T18:20:43.776Z,4.60
2019-06-01T18:23:13.498Z,3.70
2019-06-01T18:25:43.585Z,3.75
2019-06-01T18:28:18.659Z,4.28
2019-06-01T18:30:45.240Z,10.30
2019-06-01T18:33:14.757Z,12.60
2019-06-01T18:35:44.254Z,15.63
2019-06-01T18:38:14.798Z,14.18
2019-06-01T18:40:44.560Z,13.90
2019-06-01T18:43:28.046Z,13.62
2019-06-01T18:45:58.087Z,12.23
2019-06-01T18:48:28.684Z,13.72
2019-06-01T18:50:58.349Z,11.95
2019-06-01T18:53:27.900Z,9.68
2019-06-01T18:55:57.360Z,10.20
2019-06-01T18:58:26.842Z,9.90
2019-06-01T19:00:56.587Z,11.70
2019-06-01T19:03:26.104Z,10.43
2019-06-01T19:05:55.605Z,9.55
2019-06-01T19:08:25.221Z,10.68
2019-06-01T19:10:54.750Z,11.50
2019-06-01T19:13:43.635Z,9.68
2019-06-01T19:16:14.230Z,9.48
2019-06-01T19:18:44.788Z,10.35
2019-06-01T19:21:14.807Z,10.38
2019-06-01T19:23:44.343Z,5.42
2019-06-01T19:26:16.331Z,11.33
2019-06-01T19:28:44.860Z,12.93
2019-06-01T19:31:15.307Z,9.20
2019-06-01T19:33:44.952Z,8.40
2019-06-01T19:36:15.284Z,9.13
2019-06-01T19:38:47.185Z,8.83
2019-06-01T19:41:17.552Z,9.45
2019-06-01T19:43:48.358Z,9.50
2019-06-01T19:46:18.409Z,8.48
2019-06-01T19:48:48.082Z,5.97
2019-06-01T19:51:18.880Z,7.03
2019-06-01T19:53:48.916Z,7.95
2019-06-01T19:56:20.098Z,12.33
2019-06-01T19:58:52.314Z,5.37
2019-06-01T20:01:22.730Z,10.00
2019-06-01T20:03:52.270Z,5.70
2019-06-01T20:06:23.326Z,6.25
2019-06-01T20:08:52.813Z,6.67
2019-06-01T20:11:36.054Z,6.00
2019-06-01T20:14:05.570Z,8.55
2019-06-01T20:16:35.480Z,5.72
2019-06-01T20:19:05.196Z,7.67
2019-06-01T20:21:34.953Z,8.25
2019-06-01T20:24:04.697Z,7.92
2019-06-01T20:26:42.039Z,7.42
2019-06-01T20:29:05.856Z,6.53
2019-06-01T20:31:37.758Z,10.65
2019-06-01T20:34:07.292Z,8.53
2019-06-01T20:36:36.686Z,9.50
2019-06-01T20:39:08.191Z,8.50
2019-06-01T20:41:37.843Z,6.37
2019-06-01T20:44:07.305Z,6.67
2019-06-01T20:46:36.723Z,7.92
2019-06-01T20:49:07.538Z,6.25
2019-06-01T20:51:41.991Z,10.18
2019-06-01T20:54:12.870Z,9.23
2019-06-01T20:56:42.519Z,7.80
2019-06-01T20:59:11.933Z,8.98
2019-06-01T21:01:56.005Z,9.53
2019-06-01T21:04:25.420Z,7.50
2019-06-01T21:06:54.899Z,8.90
2019-06-01T21:09:24.420Z,7.97
2019-06-01T21:11:53.972Z,6.45
2019-06-01T21:14:23.463Z,8.20
2019-06-01T21:16:53.193Z,7.58
2019-06-01T21:19:22.909Z,7.92
2019-06-01T21:21:52.367Z,7.25
2019-06-01T21:24:23.119Z,6.40
2019-06-01T21:26:55.788Z,6.80
2019-06-01T21:29:25.409Z,9.65
2019-06-01T21:31:54.863Z,6.55
2019-06-01T21:34:25.356Z,8.50
2019-06-01T21:36:55.472Z,7.60
2019-06-01T21:39:44.285Z,8.55
2019-06-01T21:42:15.729Z,7.58
2019-06-01T21:44:45.241Z,7.20
2019-06-01T21:47:17.617Z,7.55
2019-06-01T21:49:53.391Z,6.72
2019-06-01T21:52:26.393Z,6.78
2019-06-01T21:55:01.281Z,6.08
2019-06-01T21:57:32.635Z,6.40
2019-06-01T22:00:02.030Z,7.42
2019-06-01T22:02:34.183Z,9.25
2019-06-01T22:05:07.357Z,7.60
2019-06-01T22:07:36.925Z,5.20
2019-06-01T22:10:07.444Z,9.30
2019-06-01T22:12:36.967Z,7.85
2019-06-01T22:15:25.933Z,5.80
2019-06-01T22:17:55.448Z,7.20
2019-06-01T22:20:26.000Z,5.17
2019-06-01T22:22:55.660Z,5.58
2019-06-01T22:25:25.948Z,5.25
2019-06-01T22:27:55.666Z,4.65
2019-06-01T22:30:26.334Z,5.85
2019-06-01T22:32:55.986Z,5.25
2019-06-01T22:35:26.735Z,6.28
2019-06-01T22:37:56.188Z,4.67
2019-06-01T22:40:25.611Z,5.03
2019-06-01T22:42:54.995Z,4.70
2019-06-01T22:45:24.678Z,6.40
2019-06-01T22:47:54.248Z,5.28
2019-06-01T22:50:24.741Z,5.92
2019-06-01T22:52:54.312Z,5.37
2019-06-01T22:55:24.404Z,7.33
2019-06-01T22:57:53.976Z,4.47
2019-06-01T23:00:27.821Z,5.97
2019-06-01T23:02:57.409Z,5.28
2019-06-01T23:05:27.093Z,5.83
2019-06-01T23:07:56.651Z,4.30
2019-06-01T23:10:29.961Z,6.30
2019-06-01T23:12:58.767Z,6.30
2019-06-01T23:15:28.240Z,5.58
2019-06-01T23:17:59.079Z,3.98
2019-06-01T23:20:29.912Z,3.85
2019-06-01T23:22:59.546Z,3.25
2019-06-01T23:25:28.935Z,4.85
2019-06-01T23:28:12.069Z,4.53
2019-06-01T23:30:41.641Z,5.55
2019-06-01T23:33:11.179Z,4.15
2019-06-01T23:35:41.107Z,5.95
2019-06-01T23:38:10.540Z,3.60
2019-06-01T23:40:40.252Z,5.92
2019-06-01T23:43:09.681Z,4.67
2019-06-01T23:45:39.216Z,4.12
2019-06-01T23:48:08.644Z,8.85
2019-06-01T23:50:38.109Z,3.05
2019-06-01T23:53:13.562Z,4.42
2019-06-01T23:55:38.799Z,4.87
2019-06-01T23:58:08.237Z,3.70
